Time;durP1;ratioP1;P1;durP2;ratioP2;P2;SDS_P1;SDS_P2;PMS_P1;PMS_P2;Temp;Humidity;BMP_temperature;BMP_pressure;BME280_temperature;BME280_humidity;BME280_pressure;Samples;Min_cycle;Max_cycle;Signal;HPM_P1;HPM_P2
2021/09/16 00:01:13;;;;;;;13.00;10.67;;;21.70;95.40;;;;;;5095280;28;20578;-63
2021/09/16 00:03:39;;;;;;;13.00;10.50;;;21.60;95.40;;;;;;5076617;28;20245;-63
2021/09/16 00:06:04;;;;;;;11.50;9.87;;;21.60;95.60;;;;;;5095243;28;20179;-63
2021/09/16 00:08:30;;;;;;;12.30;10.60;;;21.50;95.50;;;;;;5095066;28;20645;-63
2021/09/16 00:10:55;;;;;;;11.20;9.83;;;21.50;95.50;;;;;;5076883;28;20318;-63
2021/09/16 00:13:21;;;;;;;11.33;9.50;;;21.50;95.60;;;;;;5094912;28;20181;-63
2021/09/16 00:15:47;;;;;;;12.70;10.73;;;21.40;95.70;;;;;;5094737;28;20231;-63
2021/09/16 00:18:12;;;;;;;12.87;10.70;;;21.30;95.80;;;;;;5094713;28;20173;-64
2021/09/16 00:20:38;;;;;;;11.63;9.80;;;21.30;95.90;;;;;;5094911;28;20702;-63
2021/09/16 00:23:04;;;;;;;13.77;9.67;;;21.30;96.30;;;;;;5094657;28;20535;-63
2021/09/16 00:25:29;;;;;;;13.47;10.03;;;21.30;96.10;;;;;;5095048;28;20277;-63
2021/09/16 00:27:55;;;;;;;11.03;9.93;;;21.30;96.00;;;;;;5094740;28;20168;-64
2021/09/16 00:30:20;;;;;;;13.60;10.60;;;21.30;96.00;;;;;;5094498;28;20229;-63
2021/09/16 00:32:46;;;;;;;11.03;9.17;;;21.30;96.10;;;;;;5094588;28;20176;-63
2021/09/16 00:35:11;;;;;;;14.60;9.80;;;21.30;96.20;;;;;;5094365;28;20216;-63
2021/09/16 00:37:37;;;;;;;12.47;10.47;;;21.30;96.30;;;;;;5094662;28;20184;-63
2021/09/16 00:40:05;;;;;;;10.77;9.67;;;21.20;96.20;;;;;;5076096;28;20290;-63
2021/09/16 00:42:31;;;;;;;12.43;10.33;;;21.20;96.30;;;;;;5076335;28;20215;-63
2021/09/16 00:44:56;;;;;;;11.17;10.00;;;21.20;96.30;;;;;;5094389;28;20443;-63
2021/09/16 00:47:22;;;;;;;10.90;9.50;;;21.10;96.40;;;;;;5076189;28;20172;-63
2021/09/16 00:49:47;;;;;;;12.83;9.53;;;21.10;96.40;;;;;;5094505;28;20281;-63
2021/09/16 00:52:14;;;;;;;11.60;9.70;;;21.00;96.40;;;;;;5076098;28;20180;-63
2021/09/16 00:54:44;;;;;;;14.13;9.80;;;21.00;96.50;;;;;;5094338;28;20219;-63
2021/09/16 00:57:12;;;;;;;13.90;11.57;;;21.00;96.60;;;;;;5094325;28;20759;-63
2021/09/16 00:59:38;;;;;;;11.97;10.77;;;20.90;96.70;;;;;;5094370;28;20493;-63
2021/09/16 01:02:04;;;;;;;11.50;10.10;;;20.90;96.80;;;;;;5094452;28;20897;-63
2021/09/16 01:04:31;;;;;;;14.20;11.70;;;20.90;97.00;;;;;;5094067;28;20513;-63
2021/09/16 01:06:58;;;;;;;11.07;9.80;;;20.90;96.90;;;;;;5094026;28;20400;-64
2021/09/16 01:09:24;;;;;;;15.40;10.70;;;20.90;96.90;;;;;;5093394;28;20542;-63
2021/09/16 01:11:50;;;;;;;14.43;10.70;;;20.90;96.90;;;;;;5093976;28;20396;-63
2021/09/16 01:14:28;;;;;;;12.77;11.47;;;20.90;97.00;;;;;;5093993;28;20526;-63
2021/09/16 01:16:55;;;;;;;12.53;10.50;;;20.90;97.30;;;;;;5075854;28;20824;-63
2021/09/16 01:19:21;;;;;;;13.00;10.77;;;20.80;97.10;;;;;;5094183;28;20457;-63
2021/09/16 01:21:47;;;;;;;13.10;10.40;;;20.80;97.20;;;;;;5093885;28;20762;-63
2021/09/16 01:24:13;;;;;;;14.10;11.20;;;20.80;97.50;;;;;;5093742;28;20432;-63
2021/09/16 01:26:42;;;;;;;12.80;11.10;;;20.80;97.30;;;;;;5075810;28;20436;-63
2021/09/16 01:29:08;;;;;;;13.97;11.83;;;20.80;97.40;;;;;;5093632;28;20526;-63
2021/09/16 01:31:37;;;;;;;15.10;11.33;;;20.80;97.50;;;;;;5093749;28;20419;-63
2021/09/16 01:34:06;;;;;;;14.10;12.00;;;20.70;97.40;;;;;;5093720;28;20792;-63
2021/09/16 01:36:32;;;;;;;16.60;11.90;;;20.70;97.50;;;;;;5075668;28;20436;-63
2021/09/16 01:38:59;;;;;;;15.77;12.33;;;20.70;97.60;;;;;;5093655;28;20541;-63
2021/09/16 01:41:24;;;;;;;13.20;11.20;;;20.60;97.60;;;;;;5093636;28;20408;-63
2021/09/16 01:43:50;;;;;;;14.03;11.60;;;20.60;97.70;;;;;;5093437;28;20492;-63
2021/09/16 01:46:16;;;;;;;15.07;12.10;;;20.60;97.70;;;;;;5093630;28;20179;-63
2021/09/16 01:48:42;;;;;;;15.77;11.97;;;20.60;97.80;;;;;;5093596;28;20756;-63
2021/09/16 01:51:07;;;;;;;14.10;12.23;;;20.60;97.90;;;;;;5075575;28;20192;-63
2021/09/16 01:53:33;;;;;;;14.37;12.13;;;20.60;97.90;;;;;;5075419;28;20230;-63
2021/09/16 01:55:58;;;;;;;15.23;11.27;;;20.60;98.00;;;;;;5093562;28;20356;-63
2021/09/16 01:58:24;;;;;;;15.77;11.97;;;20.60;98.10;;;;;;5093468;28;20256;-63
2021/09/16 02:00:50;;;;;;;16.83;12.10;;;20.60;98.10;;;;;;5093508;28;20567;-63
2021/09/16 02:03:15;;;;;;;13.00;11.57;;;20.70;98.20;;;;;;5093342;28;20202;-63
2021/09/16 02:05:41;;;;;;;15.03;12.13;;;20.70;98.20;;;;;;5075199;28;20181;-63
2021/09/16 02:08:07;;;;;;;16.67;12.97;;;20.70;98.50;;;;;;5093456;28;20254;-64
2021/09/16 02:10:32;;;;;;;13.90;11.73;;;20.70;98.20;;;;;;5093828;28;20228;-63
2021/09/16 02:12:58;;;;;;;14.77;12.10;;;20.80;98.40;;;;;;5093382;28;20421;-63
2021/09/16 02:15:24;;;;;;;17.63;12.27;;;20.80;98.30;;;;;;5093477;28;20242;-63
2021/09/16 02:17:49;;;;;;;14.90;12.00;;;20.80;98.30;;;;;;5075295;28;20517;-63
2021/09/16 02:20:15;;;;;;;14.03;11.30;;;20.80;98.30;;;;;;5077072;28;20211;-63
2021/09/16 02:22:41;;;;;;;16.57;12.83;;;20.90;98.50;;;;;;5097130;28;20186;-63
2021/09/16 02:25:07;;;;;;;14.90;12.77;;;20.90;98.60;;;;;;5078774;28;20234;-63
2021/09/16 02:27:33;;;;;;;14.57;12.97;;;21.00;98.70;;;;;;5097064;28;20398;-63
2021/09/16 02:29:58;;;;;;;16.93;12.50;;;21.00;98.80;;;;;;5078607;28;21045;-63
2021/09/16 02:32:24;;;;;;;16.33;12.17;;;21.00;98.60;;;;;;5078767;28;20229;-64
2021/09/16 02:34:50;;;;;;;15.03;11.20;;;21.00;98.60;;;;;;5097123;28;20582;-63
2021/09/16 02:37:15;;;;;;;13.77;11.87;;;21.00;98.50;;;;;;5096840;28;20167;-63
2021/09/16 02:39:41;;;;;;;13.20;11.80;;;21.00;98.60;;;;;;5096965;28;20195;-63
2021/09/16 02:42:07;;;;;;;16.67;13.10;;;21.00;98.80;;;;;;5078721;28;20194;-63
2021/09/16 02:44:32;;;;;;;14.27;12.10;;;21.00;98.80;;;;;;5096721;28;20204;-63
2021/09/16 02:46:58;;;;;;;19.30;13.03;;;21.00;98.80;;;;;;5096655;28;20183;-63
2021/09/16 02:49:23;;;;;;;14.93;12.20;;;21.00;98.90;;;;;;5096780;28;20204;-63
2021/09/16 02:51:49;;;;;;;15.10;12.43;;;21.00;99.20;;;;;;5078366;28;20259;-64
2021/09/16 02:54:15;;;;;;;17.07;12.67;;;21.00;98.90;;;;;;5096527;28;20222;-63
2021/09/16 02:56:41;;;;;;;16.50;13.37;;;21.00;98.80;;;;;;5096443;28;20255;-63
2021/09/16 02:59:06;;;;;;;16.70;12.90;;;21.00;98.90;;;;;;5096489;28;20513;-63
2021/09/16 03:01:32;;;;;;;15.53;13.27;;;20.90;98.90;;;;;;5096427;28;20399;-63
2021/09/16 03:03:58;;;;;;;18.87;12.70;;;20.90;99.10;;;;;;5096187;28;20231;-63
2021/09/16 03:06:23;;;;;;;14.57;12.43;;;20.80;99.20;;;;;;5096369;28;20201;-63
2021/09/16 03:08:49;;;;;;;17.30;12.50;;;20.80;99.40;;;;;;5096174;28;20604;-63
2021/09/16 03:11:15;;;;;;;19.53;12.13;;;20.80;99.40;;;;;;5096238;28;20168;-63
2021/09/16 03:13:41;;;;;;;17.50;12.27;;;20.80;99.50;;;;;;5096088;28;20200;-63
2021/09/16 03:16:07;;;;;;;15.27;12.93;;;20.80;99.40;;;;;;5096033;28;20861;-63
2021/09/16 03:18:33;;;;;;;17.40;12.57;;;20.80;99.60;;;;;;5096119;28;20651;-64
2021/09/16 03:20:58;;;;;;;14.40;12.83;;;20.80;99.50;;;;;;5077955;28;20187;-64
2021/09/16 03:23:24;;;;;;;21.70;14.10;;;20.80;99.70;;;;;;5077620;28;20183;-63
2021/09/16 03:25:50;;;;;;;14.43;12.90;;;20.80;99.50;;;;;;5095775;28;20179;-63
2021/09/16 03:28:15;;;;;;;16.60;13.27;;;20.80;99.50;;;;;;5095792;28;20263;-63
2021/09/16 03:30:41;;;;;;;16.67;12.40;;;20.80;99.60;;;;;;5095536;28;20561;-64
2021/09/16 03:33:06;;;;;;;17.70;13.63;;;20.80;99.70;;;;;;5095193;28;20177;-64
2021/09/16 03:35:32;;;;;;;22.50;13.40;;;20.80;99.60;;;;;;5096119;28;20255;-63
2021/09/16 03:37:57;;;;;;;16.70;13.10;;;20.80;99.70;;;;;;5095713;28;20179;-64
2021/09/16 03:40:23;;;;;;;14.47;12.63;;;20.80;99.70;;;;;;5096119;28;20594;-63
2021/09/16 03:42:50;;;;;;;15.40;13.20;;;20.90;99.90;;;;;;5095577;28;20186;-64
2021/09/16 03:45:17;;;;;;;15.20;12.80;;;20.90;99.90;;;;;;5095814;28;20660;-63
2021/09/16 03:47:42;;;;;;;14.80;12.77;;;20.90;99.90;;;;;;5077276;28;20967;-63
2021/09/16 03:50:08;;;;;;;16.00;13.83;;;20.90;99.90;;;;;;5095788;28;20528;-63
2021/09/16 03:52:34;;;;;;;15.17;13.53;;;20.90;99.90;;;;;;5095466;28;20171;-63
2021/09/16 03:55:00;;;;;;;18.57;13.10;;;21.00;99.90;;;;;;5076905;28;20475;-63
2021/09/16 03:57:25;;;;;;;18.10;13.87;;;20.90;99.90;;;;;;5095370;28;20212;-64
2021/09/16 03:59:51;;;;;;;18.10;14.20;;;20.90;99.90;;;;;;5077179;28;20208;-63
2021/09/16 04:02:16;;;;;;;23.43;14.20;;;20.90;99.90;;;;;;5095233;28;20667;-64
2021/09/16 04:04:42;;;;;;;17.07;14.23;;;20.90;99.90;;;;;;5076664;28;20203;-63
2021/09/16 04:07:07;;;;;;;15.43;13.43;;;20.90;99.90;;;;;;5095128;28;20184;-64
2021/09/16 04:09:33;;;;;;;19.03;15.17;;;20.90;99.90;;;;;;5094962;28;20206;-63
2021/09/16 04:11:59;;;;;;;14.30;12.00;;;20.90;99.90;;;;;;5094925;28;20213;-64
2021/09/16 04:14:25;;;;;;;20.67;13.60;;;20.80;99.90;;;;;;5076496;28;20224;-64
2021/09/16 04:16:51;;;;;;;16.33;13.40;;;20.80;99.90;;;;;;5076812;28;20443;-63
2021/09/16 04:19:17;;;;;;;15.60;13.40;;;20.80;99.90;;;;;;5095045;28;20209;-64
2021/09/16 04:21:42;;;;;;;16.23;13.40;;;20.80;99.90;;;;;;5094867;28;20488;-63
2021/09/16 04:24:13;;;;;;;20.63;14.27;;;20.80;99.90;;;;;;5094560;28;20237;-63
2021/09/16 04:26:39;;;;;;;19.73;13.90;;;20.80;99.90;;;;;;5094780;28;20167;-63
2021/09/16 04:29:05;;;;;;;15.23;13.63;;;20.80;99.90;;;;;;5094696;28;20445;-63
2021/09/16 04:31:30;;;;;;;18.70;14.03;;;20.80;99.90;;;;;;5094693;28;20497;-63
2021/09/16 04:33:56;;;;;;;17.20;13.47;;;20.70;99.90;;;;;;5076266;28;20203;-63
2021/09/16 04:36:21;;;;;;;21.17;13.40;;;20.70;99.90;;;;;;5094249;28;20260;-64
2021/09/16 04:38:47;;;;;;;16.40;13.23;;;20.60;99.90;;;;;;5093744;28;20226;-63
2021/09/16 04:41:12;;;;;;;19.37;14.60;;;20.60;99.90;;;;;;5075740;28;20218;-64
2021/09/16 04:43:38;;;;;;;17.60;13.83;;;20.50;99.90;;;;;;5094374;28;20208;-63
2021/09/16 04:46:04;;;;;;;18.27;13.00;;;20.50;99.90;;;;;;5094292;28;20249;-63
2021/09/16 04:48:29;;;;;;;16.80;12.90;;;20.50;99.90;;;;;;5093721;28;20178;-63
2021/09/16 04:50:55;;;;;;;18.20;13.40;;;20.40;99.90;;;;;;5093890;28;20181;-64
2021/09/16 04:53:20;;;;;;;21.60;14.07;;;20.40;99.90;;;;;;5075938;28;20176;-63
2021/09/16 04:55:46;;;;;;;18.53;14.20;;;20.40;99.90;;;;;;5094152;28;20206;-63
2021/09/16 04:58:12;;;;;;;14.83;12.00;;;20.30;99.90;;;;;;5094203;28;20178;-64
2021/09/16 05:00:37;;;;;;;17.90;13.27;;;20.30;99.90;;;;;;5093803;28;20186;-64
2021/09/16 05:03:03;;;;;;;19.47;14.57;;;20.30;99.90;;;;;;5092820;28;20529;-64
2021/09/16 05:05:28;;;;;;;20.13;13.80;;;20.30;99.90;;;;;;5109673;28;20722;-63
2021/09/16 05:07:54;;;;;;;18.30;13.00;;;20.30;99.90;;;;;;5087364;28;20580;-64
2021/09/16 05:10:19;;;;;;;18.90;13.40;;;20.20;99.90;;;;;;5094452;28;20198;-64
2021/09/16 05:12:45;;;;;;;20.23;13.83;;;20.20;99.90;;;;;;5094051;28;20637;-65
2021/09/16 05:15:11;;;;;;;21.33;14.70;;;20.20;99.90;;;;;;5083729;28;20324;-64
2021/09/16 05:17:36;;;;;;;19.67;15.40;;;20.20;99.90;;;;;;5080600;28;20594;-64
2021/09/16 05:20:03;;;;;;;17.67;13.13;;;20.20;99.90;;;;;;5089998;28;20209;-64
2021/09/16 05:22:29;;;;;;;21.60;13.00;;;20.20;99.90;;;;;;5094362;28;20189;-64
2021/09/16 05:24:55;;;;;;;17.73;13.00;;;20.10;99.90;;;;;;5107341;28;20515;-64
2021/09/16 05:27:20;;;;;;;15.70;13.03;;;20.10;99.90;;;;;;5099840;28;20204;-64
2021/09/16 05:29:46;;;;;;;15.47;13.87;;;20.00;99.90;;;;;;5109642;28;20314;-64
2021/09/16 05:32:12;;;;;;;19.10;14.00;;;20.00;99.90;;;;;;5092969;28;20203;-64
2021/09/16 05:34:38;;;;;;;17.00;13.33;;;20.10;99.90;;;;;;5083010;28;20582;-64
2021/09/16 05:37:04;;;;;;;16.93;13.30;;;20.00;99.90;;;;;;5063522;28;20401;-64
2021/09/16 05:39:30;;;;;;;16.80;13.47;;;20.10;99.90;;;;;;5082150;28;20213;-64
2021/09/16 05:41:55;;;;;;;17.70;13.40;;;20.10;99.90;;;;;;5083765;28;20762;-65
2021/09/16 05:44:21;;;;;;;20.23;12.33;;;20.10;99.90;;;;;;5079643;28;20568;-64
2021/09/16 05:46:46;;;;;;;17.20;12.97;;;20.20;99.90;;;;;;5092020;28;20182;-64
2021/09/16 05:49:12;;;;;;;19.60;13.50;;;20.20;99.90;;;;;;5093132;28;20208;-64
2021/09/16 05:51:38;;;;;;;21.70;13.80;;;20.20;99.90;;;;;;5092187;28;20283;-64
2021/09/16 05:54:04;;;;;;;20.53;14.60;;;20.20;99.90;;;;;;5075994;28;20207;-64
2021/09/16 05:56:29;;;;;;;16.73;13.77;;;20.30;99.90;;;;;;5084847;28;20168;-64
2021/09/16 05:58:56;;;;;;;18.10;13.57;;;20.30;99.90;;;;;;5082729;28;20448;-64
2021/09/16 06:01:22;;;;;;;17.70;14.20;;;20.30;99.90;;;;;;5079984;28;20640;-64
2021/09/16 06:03:47;;;;;;;18.17;14.00;;;20.30;99.90;;;;;;5092873;28;20469;-64
2021/09/16 06:06:13;;;;;;;32.00;15.57;;;20.30;99.90;;;;;;5096552;28;20228;-65
2021/09/16 06:08:39;;;;;;;17.33;14.97;;;20.40;99.90;;;;;;5091544;28;20223;-64
2021/09/16 06:11:04;;;;;;;19.80;14.57;;;20.40;99.90;;;;;;5072297;28;20274;-64
2021/09/16 06:13:30;;;;;;;22.30;15.57;;;20.40;99.90;;;;;;5096325;28;20177;-64
2021/09/16 06:15:56;;;;;;;24.67;16.53;;;20.50;99.90;;;;;;5090166;28;20237;-63
2021/09/16 06:18:21;;;;;;;19.73;15.00;;;20.50;99.90;;;;;;5066755;28;20230;-63
2021/09/16 06:20:49;;;;;;;22.47;14.87;;;20.60;99.90;;;;;;5075861;28;20579;-63
2021/09/16 06:23:15;;;;;;;18.40;14.57;;;20.70;99.90;;;;;;5080782;28;20195;-64
2021/09/16 06:25:41;;;;;;;18.97;15.27;;;20.70;99.90;;;;;;5082704;28;20419;-64
2021/09/16 06:28:07;;;;;;;21.10;15.20;;;20.80;99.90;;;;;;5078833;28;20513;-64
2021/09/16 06:30:32;;;;;;;20.43;16.10;;;20.90;99.90;;;;;;5065105;28;20245;-64
2021/09/16 06:32:58;;;;;;;20.63;15.27;;;21.00;99.90;;;;;;5067225;28;20762;-64
2021/09/16 06:35:23;;;;;;;19.90;14.47;;;21.10;99.90;;;;;;5085054;28;20246;-64
2021/09/16 06:37:49;;;;;;;14.87;13.10;;;21.20;99.90;;;;;;5088531;28;20173;-64
2021/09/16 06:40:15;;;;;;;17.83;15.03;;;21.30;99.90;;;;;;5087582;28;20207;-64
2021/09/16 06:42:41;;;;;;;18.43;14.23;;;21.40;99.90;;;;;;5085867;28;20235;-65
2021/09/16 06:45:07;;;;;;;20.63;14.20;;;21.50;99.90;;;;;;5082843;28;20223;-64
2021/09/16 06:47:33;;;;;;;18.63;14.00;;;21.60;99.90;;;;;;5080076;28;20445;-63
2021/09/16 06:49:59;;;;;;;22.87;13.83;;;21.70;99.90;;;;;;5084502;28;20468;-63
2021/09/16 06:52:25;;;;;;;19.30;13.93;;;21.90;99.90;;;;;;5089923;28;20416;-64
2021/09/16 06:54:51;;;;;;;15.10;13.47;;;21.90;99.90;;;;;;5094872;28;20250;-63
2021/09/16 06:57:17;;;;;;;16.20;13.60;;;22.00;99.90;;;;;;5091098;28;20192;-63
2021/09/16 06:59:43;;;;;;;17.23;15.27;;;22.20;99.90;;;;;;5089684;28;20462;-63
2021/09/16 07:02:10;;;;;;;20.57;15.83;;;22.30;99.90;;;;;;5093312;28;20398;-64
2021/09/16 07:04:36;;;;;;;17.67;14.57;;;22.40;99.90;;;;;;5082567;28;20200;-63
2021/09/16 07:07:06;;;;;;;16.30;14.40;;;22.60;99.90;;;;;;5092948;28;20451;-63
2021/09/16 07:09:33;;;;;;;19.00;14.33;;;22.70;99.90;;;;;;5097001;28;20460;-63
2021/09/16 07:11:59;;;;;;;21.73;14.17;;;22.80;99.90;;;;;;5084210;28;20432;-63
2021/09/16 07:14:26;;;;;;;17.77;14.00;;;23.00;99.90;;;;;;5085642;28;20462;-63
2021/09/16 07:16:55;;;;;;;24.37;14.77;;;23.10;99.90;;;;;;5083318;28;20220;-63
2021/09/16 07:19:20;;;;;;;13.97;12.50;;;23.30;99.90;;;;;;5086724;28;20468;-63
2021/09/16 07:21:46;;;;;;;21.23;14.13;;;23.40;99.90;;;;;;5084271;28;20418;-63
2021/09/16 07:24:14;;;;;;;16.67;12.60;;;23.60;99.90;;;;;;5072267;28;20700;-63
2021/09/16 07:26:39;;;;;;;14.03;12.37;;;23.70;99.90;;;;;;5089379;28;20176;-63
2021/09/16 07:29:05;;;;;;;16.60;13.20;;;23.90;99.90;;;;;;5077224;28;20452;-63
2021/09/16 07:31:31;;;;;;;15.20;10.70;;;24.10;99.90;;;;;;5069648;28;20651;-64
2021/09/16 07:33:57;;;;;;;18.33;11.83;;;24.20;99.90;;;;;;5091953;28;20198;-64
2021/09/16 07:36:23;;;;;;;14.43;9.90;;;24.40;99.90;;;;;;5082418;28;20260;-63
2021/09/16 07:38:48;;;;;;;13.27;9.70;;;24.50;99.80;;;;;;5087907;28;20899;-63
2021/09/16 07:41:15;;;;;;;11.77;10.00;;;24.70;99.70;;;;;;5072695;28;20178;-64
2021/09/16 07:43:41;;;;;;;11.77;9.23;;;24.90;99.70;;;;;;5085934;28;20228;-63
2021/09/16 07:46:07;;;;;;;10.90;9.80;;;25.00;99.20;;;;;;5081345;28;20860;-64
2021/09/16 07:48:32;;;;;;;10.77;8.50;;;25.20;98.90;;;;;;5076509;28;20616;-63
2021/09/16 07:50:58;;;;;;;10.70;9.60;;;25.40;98.40;;;;;;5072495;28;20655;-64
2021/09/16 07:53:23;;;;;;;8.47;7.53;;;25.50;98.50;;;;;;5085866;28;20187;-63
2021/09/16 07:55:49;;;;;;;10.13;7.83;;;25.70;98.30;;;;;;5078423;28;20215;-63
2021/09/16 07:58:15;;;;;;;12.60;8.47;;;25.80;97.70;;;;;;5101496;28;20197;-63
2021/09/16 08:00:40;;;;;;;10.27;8.33;;;26.00;97.60;;;;;;5098353;28;20263;-63
2021/09/16 08:03:06;;;;;;;10.17;7.67;;;26.20;97.80;;;;;;5075378;28;20179;-63
2021/09/16 08:05:32;;;;;;;11.10;8.20;;;26.30;97.60;;;;;;5096279;28;20296;-63
2021/09/16 08:07:57;;;;;;;9.30;6.03;;;26.40;96.50;;;;;;5097278;28;20177;-64
2021/09/16 08:10:23;;;;;;;7.77;6.40;;;26.60;95.70;;;;;;5092596;28;20659;-63
2021/09/16 08:12:49;;;;;;;7.73;6.40;;;26.80;95.90;;;;;;5091588;28;20176;-64
2021/09/16 08:15:15;;;;;;;9.37;7.50;;;27.00;95.30;;;;;;5072033;28;20244;-63
2021/09/16 08:17:41;;;;;;;12.03;6.70;;;27.10;94.80;;;;;;5072158;28;20405;-64
2021/09/16 08:20:07;;;;;;;14.50;7.20;;;27.20;94.80;;;;;;5089606;28;20243;-63
2021/09/16 08:22:34;;;;;;;7.43;6.40;;;27.40;94.30;;;;;;5092949;28;20283;-63
2021/09/16 08:25:00;;;;;;;8.30;6.80;;;27.70;93.60;;;;;;5066513;28;21018;-63
2021/09/16 08:27:26;;;;;;;8.63;7.80;;;28.10;93.50;;;;;;5080096;28;20416;-64
2021/09/16 08:29:51;;;;;;;10.80;6.63;;;28.50;93.00;;;;;;5080751;28;20204;-64
2021/09/16 08:32:18;;;;;;;10.93;7.50;;;28.90;92.40;;;;;;5084542;28;20386;-64
2021/09/16 08:34:44;;;;;;;17.57;8.07;;;29.30;92.00;;;;;;5055961;28;20263;-64
2021/09/16 08:37:11;;;;;;;8.73;7.83;;;29.70;92.00;;;;;;5081087;28;20458;-64
2021/09/16 08:39:36;;;;;;;6.37;5.57;;;30.10;91.40;;;;;;5081108;28;20211;-65
2021/09/16 08:42:06;;;;;;;6.83;6.00;;;30.40;90.90;;;;;;5090702;28;20430;-65
2021/09/16 08:44:32;;;;;;;9.10;6.57;;;30.50;90.90;;;;;;5086807;28;20199;-64
2021/09/16 08:46:58;;;;;;;8.47;6.43;;;30.50;91.10;;;;;;5087641;28;20426;-65
2021/09/16 08:49:23;;;;;;;8.57;6.53;;;30.30;90.90;;;;;;5088526;28;20450;-64
2021/09/16 08:51:53;;;;;;;8.07;6.40;;;30.10;91.00;;;;;;5067092;28;20187;-65
2021/09/16 08:54:19;;;;;;;8.77;6.40;;;29.80;90.90;;;;;;5082704;28;20214;-64
2021/09/16 08:56:47;;;;;;;10.03;6.03;;;29.70;91.00;;;;;;5080210;28;20902;-65
2021/09/16 08:59:13;;;;;;;13.83;6.83;;;29.50;91.30;;;;;;5056756;28;20829;-65
2021/09/16 09:01:39;;;;;;;11.63;5.97;;;29.40;91.70;;;;;;5083383;28;20434;-65
2021/09/16 09:04:05;;;;;;;8.67;6.60;;;29.30;91.40;;;;;;5088291;28;20206;-65
2021/09/16 09:06:39;;;;;;;12.23;6.73;;;29.10;91.50;;;;;;5081340;28;20617;-64
2021/09/16 09:09:21;;;;;;;10.83;5.63;;;29.00;91.60;;;;;;5081473;28;20459;-64
2021/09/16 09:12:02;;;;;;;9.70;6.63;;;29.00;91.90;;;;;;5090294;28;20816;-65
2021/09/16 09:14:31;;;;;;;8.13;5.83;;;29.00;91.70;;;;;;5083711;28;20502;-64
2021/09/16 09:16:58;;;;;;;10.60;5.77;;;29.00;91.70;;;;;;5085454;28;20474;-65
2021/09/16 09:19:26;;;;;;;9.20;6.30;;;29.00;91.90;;;;;;5095230;28;20849;-64
2021/09/16 09:21:52;;;;;;;10.87;5.83;;;29.00;92.00;;;;;;5088772;28;20427;-64
2021/09/16 09:24:36;;;;;;;9.00;6.37;;;28.90;91.60;;;;;;5085591;28;20456;-64
2021/09/16 09:27:18;;;;;;;23.90;7.37;;;28.90;91.90;;;;;;5087366;28;20500;-65
2021/09/16 09:30:09;;;;;;;9.23;6.40;;;28.90;92.40;;;;;;5071499;28;20449;-64
2021/09/16 09:32:54;;;;;;;15.37;9.17;;;29.00;91.90;;;;;;5077515;28;20425;-64
2021/09/16 09:35:45;;;;;;;17.53;7.57;;;29.00;91.80;;;;;;5083095;28;20890;-64
2021/09/16 09:38:11;;;;;;;12.90;6.13;;;28.90;91.80;;;;;;5078106;28;20459;-65
2021/09/16 09:40:39;;;;;;;12.27;6.20;;;28.90;91.90;;;;;;5088516;28;20489;-64
2021/09/16 09:43:33;;;;;;;13.70;7.20;;;28.90;92.30;;;;;;5080385;28;20178;-64
2021/09/16 09:46:16;;;;;;;12.03;6.67;;;28.90;92.30;;;;;;5059946;28;20474;-65
2021/09/16 09:49:05;;;;;;;19.17;6.70;;;28.90;91.90;;;;;;5091058;28;20468;-64
2021/09/16 09:51:55;;;;;;;7.50;6.73;;;28.80;91.90;;;;;;5097787;28;20573;-64
2021/09/16 09:54:32;;;;;;;9.67;6.30;;;28.80;91.90;;;;;;5074039;28;20817;-64
2021/09/16 09:57:10;;;;;;;12.10;7.53;;;28.80;92.10;;;;;;5100701;28;20439;-64
2021/09/16 09:59:56;;;;;;;11.87;6.50;;;28.80;91.90;;;;;;5095537;28;20566;-64
2021/09/16 10:02:54;;;;;;;6.90;6.20;;;28.80;92.00;;;;;;5096032;28;20518;-64
2021/09/16 10:05:22;;;;;;;9.63;6.47;;;28.90;92.20;;;;;;5085172;28;20459;-64
2021/09/16 10:07:49;;;;;;;9.03;6.63;;;29.00;92.10;;;;;;5081081;28;20998;-65
2021/09/16 10:10:16;;;;;;;10.50;6.87;;;29.00;92.30;;;;;;5077894;28;21052;-64
2021/09/16 10:12:43;;;;;;;12.07;6.63;;;29.00;92.20;;;;;;5084112;28;20422;-65
2021/09/16 10:15:12;;;;;;;16.27;6.80;;;29.00;92.20;;;;;;5085489;28;20493;-65
2021/09/16 10:17:38;;;;;;;9.80;6.33;;;29.10;91.90;;;;;;5094490;28;20972;-65
2021/09/16 10:20:06;;;;;;;12.70;6.50;;;29.10;91.90;;;;;;5067727;28;20452;-64
2021/09/16 10:22:32;;;;;;;13.10;6.70;;;29.10;92.00;;;;;;5090422;28;20799;-65
2021/09/16 10:24:58;;;;;;;10.30;5.53;;;29.10;92.00;;;;;;5094291;28;20457;-64
2021/09/16 10:28:00;;;;;;;10.77;6.40;;;29.10;91.80;;;;;;5091483;28;20595;-65
2021/09/16 10:30:26;;;;;;;13.90;7.07;;;29.20;92.30;;;;;;5098450;28;20211;-65
2021/09/16 10:33:11;;;;;;;8.57;5.90;;;29.30;92.40;;;;;;5093629;28;20430;-65
2021/09/16 10:35:43;;;;;;;10.00;6.30;;;29.40;91.90;;;;;;5088551;28;20700;-64
2021/09/16 10:38:26;;;;;;;10.87;6.90;;;29.50;91.90;;;;;;5098044;28;20839;-64
2021/09/16 10:41:29;;;;;;;14.17;7.13;;;29.50;91.80;;;;;;5099447;28;20435;-65
2021/09/16 10:43:57;;;;;;;8.53;6.70;;;29.50;91.80;;;;;;5104330;28;20491;-64
2021/09/16 10:46:43;;;;;;;11.07;6.37;;;29.50;92.00;;;;;;5096116;28;20440;-64
2021/09/16 10:49:24;;;;;;;12.83;7.03;;;29.50;91.70;;;;;;5094014;28;20491;-64
2021/09/16 10:51:55;;;;;;;17.13;7.63;;;29.50;91.60;;;;;;5097398;28;20434;-64
2021/09/16 10:54:27;;;;;;;13.23;7.20;;;29.40;91.80;;;;;;5093097;28;20456;-64
2021/09/16 10:57:11;;;;;;;11.77;6.70;;;29.40;91.70;;;;;;5091524;28;20508;-65
2021/09/16 10:59:52;;;;;;;17.30;6.77;;;29.40;91.90;;;;;;5098310;28;20458;-64
2021/09/16 11:02:20;;;;;;;20.90;8.03;;;29.40;92.10;;;;;;5099899;28;20443;-64
2021/09/16 11:04:55;;;;;;;8.67;7.20;;;29.50;91.80;;;;;;5102534;28;20544;-64
2021/09/16 11:07:37;;;;;;;12.53;7.33;;;29.50;92.00;;;;;;5094850;28;20806;-65
2021/09/16 11:10:15;;;;;;;13.10;7.90;;;29.60;92.20;;;;;;5097650;28;20459;-64
2021/09/16 11:13:05;;;;;;;16.60;7.40;;;29.70;91.80;;;;;;5103356;28;21001;-65
2021/09/16 11:15:30;;;;;;;12.77;7.83;;;29.70;91.60;;;;;;5088719;28;20575;-64
2021/09/16 11:18:09;;;;;;;14.83;7.30;;;29.70;91.40;;;;;;5089582;28;21304;-63
2021/09/16 11:20:36;;;;;;;10.37;8.57;;;29.70;91.60;;;;;;5088697;28;20208;-66
2021/09/16 11:23:02;;;;;;;18.10;7.23;;;29.80;91.60;;;;;;5096360;28;20847;-63
2021/09/16 11:25:39;;;;;;;12.37;6.87;;;29.80;91.60;;;;;;5089524;28;20467;-63
2021/09/16 11:28:05;;;;;;;11.70;6.83;;;29.80;91.80;;;;;;5078790;28;20904;-63
2021/09/16 11:30:31;;;;;;;16.27;7.70;;;29.80;91.80;;;;;;5094984;28;20475;-63
2021/09/16 11:33:04;;;;;;;11.90;6.80;;;29.90;91.90;;;;;;5081124;28;20183;-63
2021/09/16 11:35:30;;;;;;;13.90;6.60;;;29.90;91.70;;;;;;5086966;28;20247;-65
2021/09/16 11:37:56;;;;;;;10.20;7.00;;;30.00;91.60;;;;;;5077609;28;20448;-65
2021/09/16 11:40:26;;;;;;;13.87;7.00;;;30.00;91.50;;;;;;5088802;28;20208;-63
2021/09/16 11:42:55;;;;;;;15.43;7.87;;;30.00;91.30;;;;;;5096626;28;20184;-63
2021/09/16 11:45:32;;;;;;;13.90;7.57;;;30.00;91.50;;;;;;5109600;28;20802;-63
2021/09/16 11:48:09;;;;;;;9.57;6.77;;;30.10;91.50;;;;;;5100249;28;20434;-63
2021/09/16 11:50:34;;;;;;;15.47;8.03;;;30.10;91.40;;;;;;5106763;28;20461;-66
2021/09/16 11:53:11;;;;;;;12.53;7.90;;;30.10;91.60;;;;;;5090279;28;20421;-65
2021/09/16 11:55:43;;;;;;;15.00;8.30;;;30.10;91.80;;;;;;5076226;28;20227;-63
2021/09/16 11:58:17;;;;;;;13.00;7.83;;;30.10;91.40;;;;;;5095579;28;20428;-63
2021/09/16 12:00:51;;;;;;;11.00;7.00;;;30.10;91.50;;;;;;5073795;28;20447;-66
2021/09/16 12:03:33;;;;;;;21.27;8.10;;;30.20;91.60;;;;;;5069881;28;20949;-66
2021/09/16 12:06:11;;;;;;;12.90;6.83;;;30.20;91.60;;;;;;5094104;28;20433;-66
2021/09/16 12:08:39;;;;;;;11.50;7.53;;;30.20;90.90;;;;;;5068666;28;20466;-63
2021/09/16 12:11:07;;;;;;;14.47;8.50;;;30.10;91.00;;;;;;5064234;28;20518;-63
2021/09/16 12:13:50;;;;;;;11.37;7.23;;;30.10;91.10;;;;;;5083373;28;20533;-65
2021/09/16 12:16:18;;;;;;;18.27;9.40;;;30.00;91.00;;;;;;5086048;28;20492;-64
2021/09/16 12:18:45;;;;;;;12.23;6.90;;;29.90;91.30;;;;;;5095362;28;20454;-65
2021/09/16 12:21:23;;;;;;;14.63;7.90;;;29.90;91.20;;;;;;5102727;28;20512;-63
2021/09/16 12:23:50;;;;;;;15.03;7.87;;;29.90;91.40;;;;;;5091172;28;20478;-63
2021/09/16 12:26:21;;;;;;;15.60;7.50;;;29.90;91.60;;;;;;5077246;28;20511;-63
2021/09/16 12:29:07;;;;;;;14.17;8.50;;;29.90;91.10;;;;;;5095007;28;20556;-63
2021/09/16 12:31:41;;;;;;;16.63;8.77;;;29.90;91.20;;;;;;5085379;28;20440;-63
2021/09/16 12:34:17;;;;;;;13.67;8.13;;;30.00;91.40;;;;;;5099091;28;20464;-63
2021/09/16 12:37:17;;;;;;;13.90;8.13;;;29.90;91.30;;;;;;5091748;28;20436;-67
2021/09/16 12:39:48;;;;;;;12.77;8.30;;;29.90;91.30;;;;;;5000003;28;20453;-65